This is the latest recevied weather packets stored in our database for station/object N2GWK. If no packets are shown the sender has not sent any weather packets the latest 10 day(s).
| Time | Temp. | Humidity | Pressure | Rain* | Wind** | Luminosity | Snow |
|---|---|---|---|---|---|---|---|
| 1777582523 | 19.44° C | 47% | 1015.9 hPa | 0 mm | - | - | - |
| 1777581324 | 19.44° C | 40% | 1016.4 hPa | 0 mm | - | - | - |
| 1777580145 | 19.44° C | 44% | 1016.7 hPa | 0 mm | - | - | - |
| 1777575928 | 18.89° C | 48% | 1017.4 hPa | 0 mm | - | - | - |
| 1777566332 | 16.11° C | 58% | 1018 hPa | 0 mm | - | - | - |
| 1777562129 | 14.44° C | 62% | 1018.3 hPa | 0 mm | - | - | - |
| 1777560322 | 12.78° C | 68% | 1018.1 hPa | 0 mm | - | - | - |
| 1777556118 | 9.44° C | 81% | 1017.9 hPa | 0 mm | - | - | - |
| 1777550732 | 6.67° C | 96% | 1017.1 hPa | 0 mm | - | - | - |
| 1777548319 | 6.11° C | 96% | 1016.6 hPa | 0 mm | - | - | - |
| 1777541133 | 7.22° C | 90% | 1015.6 hPa | 0 mm | - | - | - |
| 1777539917 | 7.22° C | 90% | 1015.6 hPa | 0 mm | - | - | - |
| 1777538127 | 7.78° C | 88% | 1015.2 hPa | 0 mm | - | - | - |
| 1777534516 | 9.44° C | 84% | 1015.2 hPa | 0 mm | - | - | - |
| 1777529732 | 10.56° C | 86% | 1015.8 hPa | 0 mm | - | - | - |
| 1777528528 | 11.11° C | 84% | 1016.1 hPa | 0 mm | - | - | - |
| 1777525520 | 11.67° C | 82% | 1015.9 hPa | 0 mm | - | - | - |
| 1777522539 | 12.78° C | 81% | 1015.6 hPa | 0 mm | - | - | - |
| 1777521933 | 12.78° C | 81% | 1015.5 hPa | 0 mm | - | - | - |
| 1777513532 | 13.89° C | 78% | 1014.1 hPa | 0 mm | - | - | - |
| 1777512937 | 14.44° C | 77% | 1014 hPa | 0 mm | - | - | - |
| 1777511122 | 15° C | 76% | 1013.6 hPa | 0 mm | - | - | - |
| 1777508733 | 17.22° C | 70% | 1013 hPa | 0 mm | - | - | - |
| 1777503326 | 20° C | 63% | 1012.6 hPa | 0 mm | - | - | - |
| 1777502731 | 19.44° C | 65% | 1012.7 hPa | 0 mm | - | - | - |
* Rain latest hour (hover to see other rain measurements)
** Current wind speed in m/s (hover to see current wind gust speed)